Time;durP1;ratioP1;P1;durP2;ratioP2;P2;SDS_P1;SDS_P2;PMS_P1;PMS_P2;Temp;Humidity;BMP_temperature;BMP_pressure;BME280_temperature;BME280_humidity;BME280_pressure;Samples;Min_cycle;Max_cycle;Signal;HPM_P1;HPM_P2
2022/12/16 00:01:23;;;;;;;47.75;29.63;;;;;;;;;;5030471;28;20041;-64
2022/12/16 00:03:53;;;;;;;51.22;29.48;;;;;;;;;;5030694;28;20124;-64
2022/12/16 00:06:20;;;;;;;47.50;28.00;;;;;;;;;;5029206;28;20079;-64
2022/12/16 00:08:46;;;;;;;50.80;30.42;;;;;;;;;;5030549;28;20044;-64
2022/12/16 00:11:12;;;;;;;46.63;28.15;;;;;;;;;;5030620;28;20041;-64
2022/12/16 00:13:39;;;;;;;48.78;28.83;;;;;;;;;;5029926;28;20069;-64
2022/12/16 00:16:16;;;;;;;50.67;29.13;;;;;;;;;;5030702;28;20041;-64
2022/12/16 00:18:42;;;;;;;46.03;28.13;;;;;;;;;;5030503;28;20702;-64
2022/12/16 00:21:08;;;;;;;49.67;30.35;;;;;;;;;;5028949;28;20095;-64
2022/12/16 00:23:34;;;;;;;47.65;28.33;;;;;;;;;;5029219;28;20056;-64
2022/12/16 00:26:01;;;;;;;49.22;31.00;;;;;;;;;;5030571;28;20481;-64
2022/12/16 00:28:27;;;;;;;49.55;29.02;;;;;;;;;;5030116;28;20128;-64
2022/12/16 00:30:54;;;;;;;51.72;30.63;;;;;;;;;;5030338;28;20037;-64
2022/12/16 00:33:22;;;;;;;49.20;29.35;;;;;;;;;;5030328;28;20080;-64
2022/12/16 00:35:49;;;;;;;54.17;31.10;;;;;;;;;;5030075;28;20049;-64
2022/12/16 00:38:15;;;;;;;49.17;28.15;;;;;;;;;;5030319;28;20073;-64
2022/12/16 00:40:41;;;;;;;50.58;28.67;;;;;;;;;;5030261;28;20427;-64
2022/12/16 00:43:07;;;;;;;45.05;28.70;;;;;;;;;;5031827;28;20049;-64
2022/12/16 00:45:33;;;;;;;47.72;29.10;;;;;;;;;;5033886;28;20628;-64
2022/12/16 00:47:59;;;;;;;46.55;28.60;;;;;;;;;;5033814;28;20033;-64
2022/12/16 00:50:25;;;;;;;52.47;28.63;;;;;;;;;;5034099;28;20504;-64
2022/12/16 00:52:51;;;;;;;48.08;29.05;;;;;;;;;;5033763;28;20064;-64
2022/12/16 00:55:18;;;;;;;52.53;29.70;;;;;;;;;;5033951;28;20041;-64
2022/12/16 00:57:44;;;;;;;56.38;28.75;;;;;;;;;;5033922;28;20037;-64
2022/12/16 01:00:11;;;;;;;52.40;29.10;;;;;;;;;;5033642;28;20144;-64
2022/12/16 01:02:44;;;;;;;47.75;28.92;;;;;;;;;;5033777;28;20037;-64
2022/12/16 01:05:11;;;;;;;48.53;27.75;;;;;;;;;;5033766;28;20052;-64
2022/12/16 01:07:38;;;;;;;46.97;27.95;;;;;;;;;;5033118;28;20087;-64
2022/12/16 01:10:05;;;;;;;46.67;26.95;;;;;;;;;;5033549;28;20045;-64
2022/12/16 01:12:31;;;;;;;43.35;26.95;;;;;;;;;;5033741;28;20091;-64
2022/12/16 01:14:58;;;;;;;51.95;29.27;;;;;;;;;;5033090;28;20057;-64
2022/12/16 01:17:26;;;;;;;46.65;27.58;;;;;;;;;;5033521;28;20401;-64
2022/12/16 01:19:53;;;;;;;56.58;30.40;;;;;;;;;;5032319;28;20464;-64
2022/12/16 01:22:20;;;;;;;52.38;30.45;;;;;;;;;;5033214;28;20403;-64
2022/12/16 01:24:46;;;;;;;48.67;28.40;;;;;;;;;;5033502;28;20641;-64
2022/12/16 01:27:12;;;;;;;48.05;29.00;;;;;;;;;;5033581;28;20593;-64
2022/12/16 01:29:38;;;;;;;45.70;28.17;;;;;;;;;;5033115;28;20033;-64
2022/12/16 01:32:05;;;;;;;48.33;29.35;;;;;;;;;;5031729;28;20037;-64
2022/12/16 01:34:31;;;;;;;47.17;28.63;;;;;;;;;;5033348;28;20091;-64
2022/12/16 01:36:57;;;;;;;46.50;29.45;;;;;;;;;;5032531;28;20172;-64
2022/12/16 01:39:26;;;;;;;47.88;28.23;;;;;;;;;;5033212;28;20526;-64
2022/12/16 01:41:52;;;;;;;52.72;28.92;;;;;;;;;;5033230;28;20046;-64
2022/12/16 01:44:22;;;;;;;44.88;28.52;;;;;;;;;;5032736;28;20045;-64
2022/12/16 01:46:56;;;;;;;49.88;28.80;;;;;;;;;;5033034;28;20038;-64
2022/12/16 01:49:31;;;;;;;46.90;29.63;;;;;;;;;;5033099;28;20038;-64
2022/12/16 01:51:59;;;;;;;47.03;30.00;;;;;;;;;;5031361;28;20044;-64
2022/12/16 01:54:30;;;;;;;57.08;29.20;;;;;;;;;;5032825;28;20143;-64
2022/12/16 01:57:16;;;;;;;51.30;30.40;;;;;;;;;;5032541;28;20049;-64
2022/12/16 01:59:44;;;;;;;55.97;30.10;;;;;;;;;;5032505;28;20041;-64
2022/12/16 02:02:11;;;;;;;48.47;30.00;;;;;;;;;;5032622;28;20384;-64
2022/12/16 02:05:19;;;;;;;48.83;28.63;;;;;;;;;;5032269;28;20052;-64
2022/12/16 02:07:25;;;;;;;51.88;31.45;;;;;;;;;;5032438;28;20042;-64
2022/12/16 02:09:51;;;;;;;52.03;28.75;;;;;;;;;;5032531;28;20037;-64
2022/12/16 02:12:23;;;;;;;45.83;28.90;;;;;;;;;;5032044;28;20052;-64
2022/12/16 02:15:21;;;;;;;50.05;29.98;;;;;;;;;;5032066;28;20094;-64
2022/12/16 02:17:53;;;;;;;50.08;31.05;;;;;;;;;;5008806;28;20484;-64
2022/12/16 02:20:25;;;;;;;49.63;28.60;;;;;;;;;;5031987;28;20045;-64
2022/12/16 02:22:58;;;;;;;49.38;28.88;;;;;;;;;;5031994;28;20094;-64
2022/12/16 02:25:33;;;;;;;46.88;30.00;;;;;;;;;;5032340;28;20034;-64
2022/12/16 02:28:10;;;;;;;48.88;28.98;;;;;;;;;;5032085;28;20042;-64
2022/12/16 02:30:51;;;;;;;49.90;29.27;;;;;;;;;;5032410;28;20044;-64
2022/12/16 02:33:17;;;;;;;52.55;28.67;;;;;;;;;;5031905;28;20045;-64
2022/12/16 02:35:55;;;;;;;47.95;28.70;;;;;;;;;;5031989;28;20049;-64
2022/12/16 02:38:34;;;;;;;48.00;29.33;;;;;;;;;;5032223;28;20045;-64
2022/12/16 02:41:01;;;;;;;47.83;29.02;;;;;;;;;;5031924;28;20049;-64
2022/12/16 02:43:36;;;;;;;51.42;29.63;;;;;;;;;;5031581;28;20091;-64
2022/12/16 02:46:03;;;;;;;46.67;27.58;;;;;;;;;;5031724;28;20045;-64
2022/12/16 02:48:29;;;;;;;48.90;29.20;;;;;;;;;;5031938;28;20341;-64
2022/12/16 02:50:55;;;;;;;45.10;27.02;;;;;;;;;;5031517;28;20042;-64
2022/12/16 02:53:21;;;;;;;49.25;28.88;;;;;;;;;;5031932;28;20416;-64
2022/12/16 02:55:55;;;;;;;52.67;29.15;;;;;;;;;;5030622;28;20046;-64
2022/12/16 02:58:40;;;;;;;45.20;28.23;;;;;;;;;;5031395;28;20041;-64
2022/12/16 03:01:26;;;;;;;48.83;28.80;;;;;;;;;;5031515;28;20045;-64
2022/12/16 03:03:57;;;;;;;43.15;27.27;;;;;;;;;;5030869;28;20045;-64
2022/12/16 03:06:25;;;;;;;43.60;25.75;;;;;;;;;;5031103;28;20035;-65
2022/12/16 03:08:54;;;;;;;40.08;24.92;;;;;;;;;;5031481;28;20040;-64
2022/12/16 03:11:20;;;;;;;42.80;26.48;;;;;;;;;;5030979;28;20094;-64
2022/12/16 03:13:49;;;;;;;42.42;26.45;;;;;;;;;;5031338;28;20155;-64
2022/12/16 03:16:17;;;;;;;42.15;26.20;;;;;;;;;;5031380;28;20041;-64
2022/12/16 03:18:44;;;;;;;42.28;26.52;;;;;;;;;;5030974;28;20399;-64
2022/12/16 03:21:11;;;;;;;45.40;27.05;;;;;;;;;;5031147;28;20447;-64
2022/12/16 03:23:40;;;;;;;40.45;24.67;;;;;;;;;;5031288;28;20038;-64
2022/12/16 03:26:08;;;;;;;42.33;25.05;;;;;;;;;;5030869;28;20046;-64
2022/12/16 03:28:41;;;;;;;41.58;23.52;;;;;;;;;;5030024;28;20056;-64
2022/12/16 03:31:13;;;;;;;37.35;24.17;;;;;;;;;;5030898;28;20037;-64
2022/12/16 03:33:44;;;;;;;38.47;23.60;;;;;;;;;;5030744;28;20034;-64
2022/12/16 03:36:12;;;;;;;37.33;22.67;;;;;;;;;;5030825;28;20045;-64
2022/12/16 03:38:40;;;;;;;37.30;23.40;;;;;;;;;;5031005;28;20129;-64
2022/12/16 03:41:06;;;;;;;48.33;23.65;;;;;;;;;;5030518;28;20044;-64
2022/12/16 03:43:32;;;;;;;38.75;23.33;;;;;;;;;;5030626;28;20037;-64
2022/12/16 03:46:01;;;;;;;36.88;22.30;;;;;;;;;;5030486;28;20041;-65
2022/12/16 03:48:27;;;;;;;38.05;21.90;;;;;;;;;;5030366;28;20095;-64
2022/12/16 03:50:54;;;;;;;35.78;21.58;;;;;;;;;;5030757;28;20047;-64
2022/12/16 03:53:23;;;;;;;47.00;21.17;;;;;;;;;;5030897;28;20632;-64
2022/12/16 03:55:49;;;;;;;32.30;21.52;;;;;;;;;;5030087;28;20056;-64
2022/12/16 03:58:15;;;;;;;27.85;18.08;;;;;;;;;;5030646;28;20037;-64
2022/12/16 04:00:41;;;;;;;31.33;17.65;;;;;;;;;;5030678;28;20803;-64
2022/12/16 04:03:07;;;;;;;27.75;17.63;;;;;;;;;;5030267;28;20042;-64
2022/12/16 04:05:33;;;;;;;29.08;17.23;;;;;;;;;;5030549;28;20120;-64
2022/12/16 04:07:59;;;;;;;23.38;16.05;;;;;;;;;;5030660;28;20176;-64
2022/12/16 04:24:19;;;;;;;23.05;14.85;;;;;;;;;;5034755;28;20573;-64
2022/12/16 04:29:31;;;;;;;25.73;14.93;;;;;;;;;;5034539;28;20543;-64
2022/12/16 04:31:57;;;;;;;27.35;15.20;;;;;;;;;;5034436;28;20124;-64
2022/12/16 04:34:30;;;;;;;22.95;14.52;;;;;;;;;;5034123;28;20046;-64
